map of DZN home
DZN - Airport
Location
City:  Zhezkazgan, Qaraghandy, Kazakhstan
Near (Alt.):Dzezkazgan
Name:Zhezkazgan Airport
ICAO:UAKD
IATA:DZN

Details
Type:Airport (Aerodrome, Airfield)
Use:Public/Civil
Latitude:4742'32"N (47.708889)
Longitude:6744'21"E (67.739167)
Elevation:1250 ft (381 m)
Variation:8.55E (WMM2015 magnetic declination)
0.06 annual change
Runways:1
Longest:8530 × 138 ft (2600 × 42 m), paved

Weather
METAR:UAKD 230330Z 24004MPS 9999 SCT016 BKN100 12/10 Q1011 R22/1///63 NOSIG RMK QFE725/0967

Related Locations
Nearby:
Farthest:IPC: 11005 mi / 17711 km
Easter Island (Isla de Pascua, Rapa Nui) [Mataveri Intl], VS, CL

Find:

   beyond  
but within

Other Information
Maps:
NOTAMs:
Links:
Sources:

  
flag of Kazakhstan   

Sectional Chart

Flight Planning
at skyvector.com

Satellite Image

Google Maps Satellite view

 

Copyright © 2004-2018 Karl L. Swartz. All rights reserved.
The Great Circle Mapper name and logo are trademarks of the Great Circle Mapper.
All other trademarks mentioned herein belong to their respective owners.
Please see credits for attibutions and further copyright information.

  Follow gcmap on Facebook Follow gcmap on Twitter Follow gcmap on Google+ GCmap on LinkedIn

hCard Microformat

Geo Microformat